Terminal Aerodrome Forecast
Issued by NWS

Home | Current Version | Previous Version | Text Only | Print | Product List | Glossary On
Versions: 1 2 3 4 5 6 7 8 9 10 11 12 13 14 15 16 17
000
FTUS42 TJSJ 152338
TAFJBQ
TAF
TJBQ 152338Z 1600/1624 09008KT P6SM VCSH SCT020 SCT030
      TEMPO 1600/1602 -SHRA BKN019 BKN028
     FM160400 11005KT P6SM FEW025
     FM161400 08013KT P6SM SCT025
     FM161900 07009KT P6SM VCTS SCT020 SCT035CB PROB30 1621/1624
      -SHRA BKN019 BKN028=

USA.gov is the U.S. government's official web portal to all federal, state and local government web resources and services.